Time;durP1;ratioP1;P1;durP2;ratioP2;P2;SDS_P1;SDS_P2;PMS_P1;PMS_P2;Temp;Humidity;BMP_temperature;BMP_pressure;BME280_temperature;BME280_humidity;BME280_pressure;Samples;Min_cycle;Max_cycle;Signal;HPM_P1;HPM_P2
2023/01/17 15:07:27;;;;;;;1.50;1.10;;;20.10;57.00;;;19.87;53.60;98600.53;4245431;27;20893;-77
2023/01/17 15:09:37;;;;;;;1.85;1.10;;;20.20;57.20;;;19.75;54.37;98595.44;4228574;28;20056;-76
2023/01/17 15:11:41;;;;;;;3.87;0.93;;;20.40;57.00;;;19.63;55.36;98601.25;4229627;28;20112;-78
2023/01/17 15:13:49;;;;;;;0.98;0.98;;;20.80;56.70;;;19.54;55.88;98611.06;4228759;28;20064;-77
2023/01/17 15:16:05;;;;;;;1.98;1.02;;;21.10;55.90;;;19.44;55.70;98611.13;4228283;28;20137;-78
2023/01/17 15:18:21;;;;;;;1.50;1.20;;;21.50;54.80;;;19.36;56.95;98612.50;4229488;28;20039;-77
2023/01/17 15:20:23;;;;;;;1.30;1.17;;;21.90;54.30;;;19.29;57.36;98616.59;4228515;28;20043;-78
2023/01/17 15:22:29;;;;;;;4.90;1.10;;;22.30;53.60;;;19.22;57.71;98616.13;4228658;28;20055;-77
2023/01/17 15:24:41;;;;;;;1.27;1.00;;;22.50;52.80;;;19.16;57.76;98618.84;4228420;28;20043;-78
2023/01/17 15:26:44;;;;;;;1.17;1.00;;;22.80;52.10;;;19.13;58.28;98635.69;4228268;28;20048;-75
2023/01/17 15:28:48;;;;;;;0.88;0.88;;;23.00;51.60;;;19.09;58.29;98633.81;4229359;28;20040;-75
2023/01/17 15:31:13;;;;;;;0.90;0.90;;;23.20;51.10;;;19.04;57.44;98631.13;4228495;28;20051;-76
2023/01/17 15:33:19;;;;;;;1.00;1.00;;;23.30;50.30;;;19.01;58.45;98631.69;4228480;28;20071;-74
2023/01/17 15:35:22;;;;;;;1.02;0.95;;;23.50;50.20;;;18.97;58.83;98634.13;4215377;28;20041;-78
2023/01/17 15:37:33;;;;;;;0.90;0.90;;;23.60;49.90;;;18.92;58.31;98628.69;4211389;28;20059;-75
2023/01/17 15:39:40;;;;;;;1.73;0.80;;;23.70;49.40;;;18.90;58.72;98640.91;4211535;28;20044;-77
2023/01/17 15:41:42;;;;;;;1.10;1.00;;;23.80;49.30;;;18.86;58.62;98626.28;4217612;28;20113;-76
2023/01/17 15:43:45;;;;;;;0.90;0.90;;;23.80;49.00;;;18.83;58.67;98625.75;4224754;28;20184;-73
2023/01/17 15:45:56;;;;;;;1.20;0.93;;;23.80;48.80;;;18.79;58.39;98623.88;4228409;28;20069;-77
2023/01/17 15:48:40;;;;;;;0.93;0.90;;;23.90;48.40;;;18.75;57.67;98634.44;4228144;28;20044;-77
2023/01/17 15:50:42;;;;;;;2.97;1.17;;;24.00;48.50;;;18.73;58.92;98631.19;4228228;28;20081;-76
2023/01/17 15:52:52;;;;;;;1.10;1.05;;;24.00;48.40;;;18.72;58.53;98624.13;4228281;28;20048;-77
2023/01/17 15:54:59;;;;;;;1.00;1.00;;;24.00;47.90;;;18.70;58.73;98623.59;4228241;28;20052;-76
2023/01/17 15:57:34;;;;;;;1.70;1.10;;;24.00;48.00;;;18.66;57.99;98632.56;4228105;28;20047;-75
2023/01/17 15:59:46;;;;;;;0.88;0.88;;;24.10;47.50;;;18.63;58.35;98631.19;4228080;28;20117;-77
2023/01/17 16:01:55;;;;;;;1.20;1.10;;;24.10;47.40;;;18.61;58.55;98630.69;4228056;28;20116;-77
2023/01/17 16:03:57;;;;;;;2.10;1.10;;;24.10;47.20;;;18.59;58.55;98630.16;4227770;28;20043;-76
2023/01/17 16:06:02;;;;;;;1.38;1.02;;;24.10;47.30;;;18.57;58.51;98631.47;4228223;28;20083;-78
2023/01/17 16:08:35;;;;;;;1.00;1.00;;;24.10;47.10;;;18.50;57.52;98623.59;4227575;28;20105;-78
2023/01/17 16:10:38;;;;;;;0.85;0.85;;;24.10;46.80;;;18.49;58.64;98627.41;4228392;28;20040;-77
2023/01/17 16:12:41;;;;;;;1.05;1.05;;;24.10;47.00;;;18.46;58.60;98626.03;4228915;28;20035;-77
2023/01/17 16:14:43;;;;;;;1.30;1.00;;;24.10;47.00;;;18.46;58.47;98630.66;4227847;28;20052;-77
2023/01/17 16:16:52;;;;;;;1.20;1.10;;;24.00;46.90;;;18.44;58.11;98632.81;4227535;28;20344;-77
2023/01/17 16:19:01;;;;;;;1.00;1.00;;;24.00;46.60;;;18.43;58.13;98639.34;4204291;28;20048;-77
2023/01/17 16:21:19;;;;;;;3.15;1.13;;;24.00;46.60;;;18.39;57.90;98639.09;4199590;28;20048;-76
2023/01/17 16:23:21;;;;;;;2.15;1.10;;;24.10;46.40;;;18.40;58.33;98642.63;4199624;28;20055;-77
2023/01/17 16:25:31;;;;;;;1.13;1.13;;;24.10;46.60;;;18.39;58.37;98643.72;4200806;28;20052;-77
2023/01/17 16:27:33;;;;;;;1.17;1.17;;;24.00;46.40;;;18.37;58.51;98649.41;4199784;28;20054;-77
2023/01/17 16:29:35;;;;;;;1.05;0.95;;;24.10;46.40;;;18.35;58.29;98646.16;4198309;28;20101;-74
2023/01/17 16:31:37;;;;;;;1.08;1.08;;;24.10;46.30;;;18.33;58.46;98648.31;4200137;28;20123;-77
2023/01/17 16:33:41;;;;;;;1.30;1.20;;;24.10;46.20;;;18.32;58.33;98654.81;4198834;28;20059;-75
2023/01/17 16:35:43;;;;;;;0.98;0.98;;;24.00;46.20;;;18.30;58.07;98650.75;4216114;28;20052;-80
2023/01/17 16:37:57;;;;;;;2.10;1.20;;;24.00;46.10;;;18.28;57.67;98647.50;4216620;28;20036;-81
2023/01/17 16:40:00;;;;;;;1.17;1.10;;;24.00;45.90;;;18.26;58.31;98653.19;4216938;28;20055;-79
2023/01/17 16:42:04;;;;;;;1.13;1.02;;;24.00;46.00;;;18.23;58.09;98648.31;4211473;28;20052;-79
2023/01/17 16:44:06;;;;;;;1.02;1.00;;;24.00;45.90;;;18.24;58.15;98651.81;4180755;28;20466;-78
2023/01/17 16:46:12;;;;;;;2.05;1.17;;;24.00;46.00;;;18.23;58.03;98655.63;4200196;28;20190;-79
2023/01/17 16:48:14;;;;;;;1.20;1.17;;;23.90;45.90;;;18.21;57.91;98655.06;4200375;28;20053;-79
2023/01/17 16:50:21;;;;;;;1.80;1.02;;;24.00;45.90;;;18.21;58.17;98657.78;4199035;28;20052;-76
2023/01/17 16:52:24;;;;;;;1.20;1.20;;;23.90;45.80;;;18.19;58.25;98655.34;4199741;28;20058;-76
2023/01/17 16:54:27;;;;;;;1.23;1.17;;;24.00;45.80;;;18.20;58.02;98659.69;4198616;28;20086;-76
2023/01/17 16:56:31;;;;;;;1.00;1.00;;;24.00;45.80;;;18.18;58.17;98659.16;4199925;28;20493;-81
2023/01/17 16:58:35;;;;;;;1.40;1.30;;;24.00;45.80;;;18.18;58.01;98661.06;4199885;28;20431;-78
2023/01/17 17:00:37;;;;;;;1.30;1.20;;;23.90;45.70;;;18.17;58.05;98667.56;4199733;28;20059;-82
2023/01/17 17:02:39;;;;;;;1.10;1.10;;;23.90;45.70;;;18.14;57.95;98666.22;4199715;28;20049;-76
2023/01/17 17:04:42;;;;;;;1.48;1.15;;;23.90;45.60;;;18.13;58.23;98670.00;4199716;28;20057;-80
2023/01/17 17:06:44;;;;;;;1.40;1.30;;;23.90;45.60;;;18.11;57.97;98667.56;4199403;28;20055;-82
2023/01/17 17:08:46;;;;;;;1.15;1.05;;;23.80;45.50;;;18.11;57.83;98673.00;4200165;28;20449;-80
2023/01/17 17:10:48;;;;;;;1.33;1.23;;;23.80;45.50;;;18.10;57.91;98667.84;4199821;28;20478;-80
2023/01/17 17:12:51;;;;;;;1.60;1.00;;;23.90;45.50;;;18.08;57.83;98670.81;4198487;28;20043;-79
2023/01/17 17:14:54;;;;;;;1.20;1.20;;;23.80;45.50;;;18.07;57.90;98673.78;4199782;28;20052;-76
2023/01/17 17:16:59;;;;;;;1.05;1.05;;;23.80;45.50;;;18.06;57.75;98672.16;4198532;28;20604;-75
2023/01/17 17:19:05;;;;;;;1.48;1.30;;;23.80;45.50;;;18.05;57.95;98674.06;4210652;28;20067;-75
2023/01/17 17:21:08;;;;;;;1.27;1.20;;;23.80;45.50;;;18.06;58.03;98681.09;4215082;28;20044;-78
2023/01/17 17:23:10;;;;;;;1.02;1.02;;;23.80;45.60;;;18.08;57.75;98678.13;4216372;28;20036;-78
2023/01/17 17:25:14;;;;;;;1.35;1.25;;;23.80;45.50;;;18.09;57.83;98679.75;4215071;28;20436;-76
2023/01/17 17:27:16;;;;;;;1.10;1.10;;;23.90;45.50;;;18.12;57.74;98679.22;4215276;28;20055;-77
2023/01/17 17:29:19;;;;;;;1.10;1.00;;;23.90;45.40;;;18.14;57.79;98687.91;4214001;28;20044;-76
2023/01/17 17:31:23;;;;;;;1.00;1.00;;;23.90;45.40;;;18.15;57.72;98693.06;4214599;28;20055;-77
2023/01/17 17:33:25;;;;;;;1.17;1.00;;;23.90;45.30;;;18.16;57.72;98691.16;4214477;28;20051;-79
2023/01/17 17:35:27;;;;;;;1.65;1.00;;;24.00;45.30;;;18.19;57.76;98697.94;4200607;28;20359;-77
2023/01/17 17:37:29;;;;;;;0.98;0.90;;;24.00;45.20;;;18.20;57.70;98697.66;4198233;28;20044;-78
2023/01/17 17:39:32;;;;;;;0.98;0.98;;;24.00;45.10;;;18.22;57.36;98694.69;4198214;28;20052;-77
2023/01/17 17:41:38;;;;;;;1.35;1.27;;;24.00;45.10;;;18.23;57.52;98699.03;4198768;28;20045;-77
2023/01/17 17:43:40;;;;;;;2.15;1.23;;;24.00;45.00;;;18.24;57.43;98706.06;4199053;28;20072;-77
2023/01/17 17:45:42;;;;;;;3.92;1.58;;;24.00;45.00;;;18.24;57.24;98706.06;4197996;28;20048;-78
2023/01/17 17:47:45;;;;;;;3.22;1.30;;;24.00;45.00;;;18.23;57.38;98707.97;4198505;28;20118;-78
2023/01/17 17:49:47;;;;;;;3.00;1.30;;;24.00;44.90;;;18.22;57.19;98710.94;4199835;28;20040;-75
2023/01/17 17:51:50;;;;;;;1.60;1.15;;;24.00;44.90;;;18.24;57.37;98711.50;4200540;28;20045;-79
2023/01/17 17:53:53;;;;;;;1.60;1.13;;;24.00;44.90;;;18.25;57.50;98710.41;4197926;28;20044;-79
2023/01/17 17:55:55;;;;;;;1.30;1.20;;;24.10;44.90;;;18.26;57.25;98710.16;4205678;28;20439;-76
2023/01/17 17:57:57;;;;;;;4.15;1.50;;;24.10;44.90;;;18.29;57.37;98706.09;4215613;28;20083;-76
2023/01/17 17:59:59;;;;;;;1.73;1.50;;;24.10;44.90;;;18.31;57.46;98709.34;4214409;28;20455;-76
2023/01/17 18:02:02;;;;;;;2.25;1.27;;;24.20;44.90;;;18.33;57.30;98718.84;4214231;28;20117;-79
2023/01/17 18:04:06;;;;;;;1.63;1.40;;;24.20;44.80;;;18.36;57.22;98723.72;4214148;28;20040;-77
2023/01/17 18:06:12;;;;;;;1.67;1.30;;;24.20;44.80;;;18.40;57.22;98724.00;4213990;28;20063;-76
2023/01/17 18:08:14;;;;;;;1.50;1.40;;;24.30;44.80;;;18.41;57.17;98728.31;4204827;28;20094;-77
2023/01/17 18:10:17;;;;;;;1.50;1.30;;;24.30;44.80;;;18.44;57.15;98730.50;4197420;28;20044;-78
2023/01/17 18:12:19;;;;;;;2.22;1.30;;;24.30;44.70;;;18.45;57.07;98726.69;4196647;28;20041;-74
2023/01/17 18:14:22;;;;;;;1.45;1.10;;;24.30;44.70;;;18.46;57.14;98734.56;4210548;28;20044;-76
2023/01/17 18:16:29;;;;;;;1.35;1.25;;;24.30;44.70;;;18.48;57.00;98731.59;4213977;28;20044;-74
2023/01/17 18:18:31;;;;;;;2.90;1.27;;;24.30;44.70;;;18.49;56.94;98728.59;4215063;28;20367;-77
2023/01/17 18:20:34;;;;;;;1.70;1.30;;;24.30;44.70;;;18.52;57.08;98734.59;4214409;28;20240;-77
2023/01/17 18:22:37;;;;;;;1.83;1.38;;;24.30;44.70;;;18.54;57.00;98744.09;4214039;28;20405;-74
2023/01/17 18:24:39;;;;;;;1.85;1.17;;;24.30;44.70;;;18.56;56.84;98743.81;4213921;28;20389;-74
2023/01/17 18:26:44;;;;;;;2.45;1.10;;;24.30;44.70;;;18.59;56.83;98740.56;4214202;28;20040;-75
2023/01/17 18:28:46;;;;;;;1.73;1.23;;;24.40;44.70;;;18.61;56.91;98746.56;4214226;28;20044;-75
2023/01/17 18:30:48;;;;;;;2.28;1.65;;;24.40;44.60;;;18.64;56.94;98749.53;4213868;28;20493;-75
2023/01/17 18:32:51;;;;;;;1.45;1.35;;;24.50;44.60;;;18.64;56.71;98749.53;4215037;28;20405;-76
2023/01/17 18:34:53;;;;;;;1.75;1.55;;;24.50;44.50;;;18.68;56.63;98753.34;4213988;28;20386;-75
2023/01/17 18:36:57;;;;;;;1.45;1.35;;;24.60;44.40;;;18.70;56.60;98753.88;4214774;28;20097;-75
2023/01/17 18:39:00;;;;;;;1.52;1.42;;;24.60;44.40;;;18.72;56.81;98759.03;4214116;28;20054;-74
2023/01/17 18:41:03;;;;;;;2.33;1.40;;;24.60;44.40;;;18.75;56.64;98756.59;4197855;28;20044;-75
2023/01/17 18:43:05;;;;;;;1.55;1.45;;;24.70;44.30;;;18.77;56.75;98764.47;4197225;28;20705;-76
2023/01/17 18:45:09;;;;;;;1.60;1.50;;;24.70;44.30;;;18.79;56.81;98768.56;4215347;28;20385;-78
2023/01/17 18:47:11;;;;;;;3.15;1.40;;;24.70;44.20;;;18.82;56.70;98769.91;4220541;28;20101;-75
2023/01/17 18:49:17;;;;;;;2.03;1.63;;;24.80;44.20;;;18.84;56.70;98773.97;4222213;28;20416;-76
2023/01/17 18:51:20;;;;;;;1.65;1.35;;;24.80;44.20;;;18.86;56.61;98773.69;4219202;28;20108;-75
2023/01/17 18:53:24;;;;;;;1.40;1.30;;;24.80;44.20;;;18.90;56.67;98773.97;4218679;28;20411;-75
2023/01/17 18:55:26;;;;;;;1.60;1.50;;;24.80;44.10;;;18.92;56.73;98775.31;4221411;28;20044;-77
2023/01/17 18:57:28;;;;;;;1.92;1.50;;;24.90;44.10;;;18.95;56.50;98784.81;4221573;28;20372;-75
2023/01/17 18:59:30;;;;;;;2.08;1.45;;;24.90;44.00;;;18.96;56.60;98781.84;4221892;28;20058;-77
2023/01/17 19:01:35;;;;;;;2.15;1.50;;;25.00;44.00;;;18.99;56.53;98785.91;4220994;28;20058;-76
2023/01/17 19:03:38;;;;;;;1.75;1.30;;;24.90;43.90;;;19.00;56.43;98787.53;4221477;28;20369;-77
2023/01/17 19:05:40;;;;;;;1.60;1.50;;;25.00;43.90;;;19.02;56.48;98790.81;4220977;28;20044;-76
2023/01/17 19:07:42;;;;;;;1.55;1.45;;;25.00;43.90;;;19.03;56.44;98792.44;4219745;28;20059;-75
2023/01/17 19:09:46;;;;;;;2.15;1.30;;;25.00;43.90;;;19.04;56.40;98796.78;4214130;28;20040;-74
2023/01/17 19:11:48;;;;;;;1.30;1.30;;;25.00;43.90;;;19.05;56.50;98801.13;4213925;28;20048;-75
2023/01/17 19:13:52;;;;;;;1.35;1.35;;;25.00;43.90;;;19.04;56.40;98794.88;4214817;28;20044;-76
2023/01/17 19:15:59;;;;;;;1.42;1.33;;;25.00;43.90;;;19.03;56.32;98804.13;4214240;28;20059;-75
2023/01/17 19:18:02;;;;;;;3.53;1.45;;;25.00;43.90;;;19.02;56.41;98801.66;4209547;28;20057;-78
2023/01/17 19:20:07;;;;;;;3.42;1.48;;;24.90;43.90;;;19.01;56.25;98805.47;4198262;28;20462;-77
2023/01/17 19:22:09;;;;;;;2.40;1.70;;;24.90;43.80;;;19.00;56.18;98810.09;4196935;28;20139;-75
2023/01/17 19:24:13;;;;;;;2.40;1.42;;;24.90;43.80;;;19.00;56.16;98817.41;4196766;28;20052;-77
2023/01/17 19:26:19;;;;;;;2.53;1.30;;;24.90;43.80;;;18.98;56.16;98811.44;4196698;28;20441;-76
2023/01/17 19:28:22;;;;;;;1.50;1.40;;;24.90;43.70;;;18.98;56.11;98823.13;4196819;28;20049;-74
2023/01/17 19:30:25;;;;;;;1.60;1.50;;;24.90;43.70;;;18.98;55.96;98811.44;4196461;28;20087;-76
2023/01/17 19:32:27;;;;;;;1.50;1.40;;;24.90;43.70;;;18.96;56.09;98816.31;4196555;28;20360;-76
2023/01/17 19:34:29;;;;;;;1.40;1.30;;;24.90;43.60;;;18.95;56.05;98818.22;4197066;28;20044;-75
2023/01/17 19:36:35;;;;;;;1.48;1.38;;;24.90;43.60;;;18.95;55.91;98822.84;4196754;28;20059;-76
2023/01/17 19:38:38;;;;;;;1.58;1.48;;;24.90;43.50;;;18.93;55.94;98819.56;4197290;28;20048;-76
2023/01/17 19:40:40;;;;;;;1.42;1.33;;;24.80;43.50;;;18.91;55.89;98821.75;4197679;28;20111;-75
2023/01/17 19:42:44;;;;;;;2.10;1.30;;;24.90;43.50;;;18.89;55.95;98829.34;4196723;28;20362;-75
2023/01/17 19:44:46;;;;;;;1.77;1.65;;;24.80;43.40;;;18.85;55.88;98831.78;4197273;28;20049;-75
2023/01/17 19:46:48;;;;;;;1.30;1.30;;;24.80;43.40;;;18.83;55.81;98837.50;4196856;28;20434;-74
2023/01/17 19:48:50;;;;;;;1.33;1.30;;;24.80;43.40;;;18.82;55.91;98835.06;4196706;28;20494;-74
2023/01/17 19:50:53;;;;;;;1.40;1.30;;;24.80;43.40;;;18.81;55.74;98834.25;4196843;28;20059;-75
2023/01/17 19:52:55;;;;;;;3.10;1.80;;;24.80;43.40;;;18.79;55.75;98831.00;4208012;28;20067;-76
2023/01/17 19:54:57;;;;;;;1.67;1.58;;;24.80;43.40;;;18.78;55.81;98829.34;4216472;28;20044;-77
2023/01/17 19:56:59;;;;;;;1.77;1.67;;;24.70;43.40;;;18.78;55.73;98828.53;4216533;28;20040;-77
2023/01/17 19:59:03;;;;;;;1.50;1.40;;;24.80;43.40;;;18.78;55.74;98834.78;4217403;28;20051;-78
2023/01/17 20:01:10;;;;;;;1.65;1.55;;;24.70;43.30;;;18.77;55.80;98826.91;4216309;28;20126;-75
2023/01/17 20:03:12;;;;;;;1.80;1.70;;;24.70;43.30;;;18.76;55.88;98830.72;4216436;28;20059;-75
2023/01/17 20:05:14;;;;;;;1.70;1.60;;;24.70;43.30;;;18.76;55.86;98826.09;4216765;28;20044;-75
2023/01/17 20:07:16;;;;;;;2.05;1.60;;;24.80;43.30;;;18.75;55.78;98835.31;4215907;28;20051;-77
2023/01/17 20:09:19;;;;;;;1.70;1.60;;;24.80;43.30;;;18.74;55.61;98836.41;4217281;28;20048;-78
2023/01/17 20:11:24;;;;;;;1.60;1.50;;;24.70;43.20;;;18.74;55.60;98835.59;4216351;28;20097;-77
2023/01/17 20:13:26;;;;;;;2.13;1.88;;;24.80;43.20;;;18.72;55.61;98835.03;4217302;28;20051;-75
2023/01/17 20:15:30;;;;;;;1.70;1.60;;;24.70;43.20;;;18.71;55.53;98842.38;4216130;28;20114;-75
2023/01/17 20:17:32;;;;;;;1.65;1.55;;;24.70;43.10;;;18.69;55.55;98846.44;4216095;28;20134;-77
2023/01/17 20:19:34;;;;;;;2.17;2.00;;;24.70;43.10;;;18.67;55.61;98838.56;4199448;28;20056;-76
2023/01/17 20:21:36;;;;;;;1.73;1.63;;;24.60;43.10;;;18.67;55.59;98851.31;4199947;28;20052;-76
2023/01/17 20:23:42;;;;;;;1.90;1.80;;;24.60;43.10;;;18.66;55.52;98852.41;4199438;28;20052;-76
2023/01/17 20:25:57;;;;;;;2.08;1.85;;;24.60;43.10;;;18.63;55.49;98853.75;4199191;28;20048;-76
2023/01/17 20:27:59;;;;;;;2.65;2.05;;;24.60;43.00;;;18.62;55.61;98838.53;4199360;28;20094;-77
2023/01/17 20:30:01;;;;;;;2.05;1.85;;;24.60;43.20;;;18.64;55.66;98841.00;4199114;28;20509;-76
2023/01/17 20:32:05;;;;;;;1.95;1.85;;;24.60;43.10;;;18.63;55.79;98840.19;4198743;28;20139;-76
2023/01/17 20:34:10;;;;;;;2.20;2.00;;;24.60;43.10;;;18.64;55.49;98838.28;4198779;28;20409;-75
2023/01/17 20:36:16;;;;;;;2.15;1.90;;;24.70;43.10;;;18.64;55.61;98838.28;4200369;28;20062;-76
2023/01/17 20:38:19;;;;;;;2.13;1.80;;;24.60;43.00;;;18.64;55.56;98841.81;4199057;28;20044;-78
2023/01/17 20:40:21;;;;;;;2.85;1.88;;;24.70;43.10;;;18.65;55.60;98838.00;4200377;28;20049;-78
2023/01/17 20:42:23;;;;;;;1.85;1.75;;;24.70;43.00;;;18.65;55.55;98848.88;4200230;28;20389;-79
2023/01/17 20:44:25;;;;;;;2.10;1.90;;;24.70;43.00;;;18.65;55.57;98845.34;4199796;28;20052;-77
2023/01/17 20:46:34;;;;;;;2.00;1.90;;;24.70;42.90;;;18.64;55.53;98844.53;4198798;28;20072;-75
2023/01/17 20:48:43;;;;;;;2.33;2.13;;;24.70;42.80;;;18.63;55.35;98840.19;4199022;28;20125;-76
2023/01/17 20:50:45;;;;;;;2.50;2.10;;;24.70;42.80;;;18.61;55.64;98846.97;4199104;28;20053;-75
2023/01/17 20:52:48;;;;;;;1.98;1.83;;;24.60;42.90;;;18.61;55.45;98847.81;4200421;28;20302;-77
2023/01/17 20:54:50;;;;;;;2.38;2.17;;;24.70;42.80;;;18.60;55.44;98848.88;4198758;28;20459;-76
2023/01/17 20:56:54;;;;;;;2.38;2.17;;;24.70;42.80;;;18.60;55.16;98848.88;4203351;28;20353;-75
2023/01/17 20:58:56;;;;;;;2.42;2.22;;;24.60;42.80;;;18.60;55.35;98846.16;4204466;28;20097;-74
2023/01/17 21:00:59;;;;;;;2.40;2.20;;;24.60;42.80;;;18.61;55.35;98846.97;4213058;28;20070;-77
2023/01/17 21:03:01;;;;;;;2.53;2.33;;;24.60;42.70;;;18.59;55.21;98855.41;4202271;28;20048;-79
2023/01/17 21:05:09;;;;;;;2.85;2.55;;;24.50;42.70;;;18.58;55.15;98848.31;4203486;28;20102;-75
2023/01/17 21:07:11;;;;;;;3.05;2.40;;;24.50;42.70;;;18.57;55.23;98851.28;4215272;28;20056;-75
2023/01/17 21:09:15;;;;;;;3.67;2.53;;;24.50;42.80;;;18.57;55.01;98854.00;4215236;28;20496;-74
2023/01/17 21:11:21;;;;;;;3.55;2.65;;;24.50;42.80;;;18.54;55.11;98855.34;4214997;28;20056;-75
2023/01/17 21:13:24;;;;;;;3.95;2.50;;;24.40;42.80;;;18.53;55.05;98852.91;4214686;28;20056;-75
2023/01/17 21:15:26;;;;;;;2.60;2.40;;;24.40;42.80;;;18.52;55.00;98854.78;4215337;28;20052;-76
2023/01/17 21:17:28;;;;;;;3.05;2.53;;;24.40;42.80;;;18.50;54.97;98859.66;4215090;28;20035;-74
2023/01/17 21:19:30;;;;;;;3.55;2.70;;;24.30;42.80;;;18.48;54.85;98857.22;4215982;28;20063;-74
2023/01/17 21:21:34;;;;;;;3.13;2.50;;;24.30;42.80;;;18.47;54.88;98857.50;4215514;28;20138;-76
2023/01/17 21:23:38;;;;;;;3.90;2.60;;;24.30;42.80;;;18.46;54.77;98866.72;4215328;28;20359;-76
2023/01/17 21:25:40;;;;;;;3.05;2.53;;;24.20;42.80;;;18.43;54.84;98862.63;4215113;28;20066;-75
2023/01/17 21:27:44;;;;;;;3.40;2.67;;;24.20;42.80;;;18.42;54.87;98868.31;4215051;28;20082;-76
2023/01/17 21:29:46;;;;;;;2.88;2.60;;;24.20;42.80;;;18.39;54.74;98864.28;4216515;28;20760;-74
2023/01/17 21:31:58;;;;;;;3.08;2.50;;;24.10;42.90;;;18.36;54.85;98875.66;4215061;28;20052;-80
2023/01/17 21:34:04;;;;;;;3.88;2.80;;;24.10;42.90;;;18.33;54.97;98878.06;4215683;28;20044;-78
2023/01/17 21:36:09;;;;;;;3.15;2.50;;;24.00;42.90;;;18.30;54.83;98876.72;4215610;28;20192;-74
2023/01/17 21:38:13;;;;;;;2.75;2.55;;;24.00;43.00;;;18.29;54.89;98866.13;4214893;28;20048;-75
2023/01/17 21:40:17;;;;;;;2.60;2.40;;;23.90;43.00;;;18.26;54.91;98874.78;4214870;28;20079;-76
2023/01/17 21:42:19;;;;;;;6.15;3.05;;;24.00;43.00;;;18.23;54.71;98873.41;4215018;28;20051;-76
2023/01/17 21:44:24;;;;;;;3.65;2.92;;;23.90;43.00;;;18.22;54.90;98870.97;4214929;28;20043;-76
2023/01/17 21:46:28;;;;;;;3.05;2.83;;;23.90;43.00;;;18.19;54.78;98876.94;4215184;28;20096;-75
2023/01/17 21:48:31;;;;;;;4.85;2.63;;;23.90;43.10;;;18.15;55.10;98874.78;4215688;28;20036;-76
2023/01/17 21:50:34;;;;;;;3.28;2.47;;;23.80;43.10;;;18.13;54.91;98878.81;4215773;28;20050;-75
2023/01/17 21:52:36;;;;;;;2.60;2.40;;;23.80;43.10;;;18.11;54.88;98889.94;4216072;28;20054;-75
2023/01/17 21:59:24;;;;;;;4.00;2.53;;;23.70;43.40;;;17.96;55.31;98887.16;4130235;28;20451;-76
2023/01/17 22:01:32;;;;;;;3.10;2.80;;;23.60;43.40;;;17.97;55.12;98879.84;4207889;28;20044;-75
2023/01/17 22:03:35;;;;;;;3.08;2.63;;;23.70;43.30;;;17.94;55.29;98875.75;4214661;28;20336;-76
2023/01/17 22:05:37;;;;;;;3.22;2.90;;;23.60;43.40;;;17.94;55.05;98875.75;4214496;28;20522;-77
2023/01/17 22:07:39;;;;;;;3.20;2.83;;;23.60;43.40;;;17.92;55.37;98886.03;4214508;28;20048;-78
2023/01/17 22:09:43;;;;;;;2.63;2.42;;;23.50;43.40;;;17.91;55.20;98886.31;4214847;28;20126;-77
2023/01/17 22:11:45;;;;;;;4.72;2.53;;;23.50;43.40;;;17.89;55.06;98880.34;4215457;28;20343;-77
2023/01/17 22:13:47;;;;;;;2.72;2.45;;;23.50;43.40;;;17.87;55.26;98886.00;4214428;28;20530;-76
2023/01/17 22:15:59;;;;;;;2.78;2.50;;;23.50;43.40;;;17.84;55.00;98877.59;4215143;28;20054;-75
2023/01/17 22:18:01;;;;;;;4.82;2.65;;;23.50;43.40;;;17.83;55.20;98881.38;4215217;28;20036;-75
2023/01/17 22:20:05;;;;;;;3.65;2.80;;;23.40;43.50;;;17.81;55.18;98895.19;4215350;28;20097;-75
2023/01/17 22:22:07;;;;;;;2.97;2.65;;;23.40;43.50;;;17.78;55.30;98895.72;4214281;28;20055;-77
2023/01/17 22:24:10;;;;;;;4.22;2.60;;;23.30;43.50;;;17.75;55.42;98888.91;4214715;28;20039;-76
2023/01/17 22:26:14;;;;;;;2.92;2.63;;;23.40;43.50;;;17.74;55.44;98883.78;4214320;28;20055;-76
2023/01/17 22:28:16;;;;;;;3.00;2.70;;;23.30;43.50;;;17.72;55.48;98891.34;4214341;28;20040;-75
2023/01/17 22:30:18;;;;;;;3.40;2.97;;;23.30;43.50;;;17.70;55.42;98883.47;4213742;28;20081;-75
2023/01/17 22:32:21;;;;;;;2.60;2.40;;;23.30;43.50;;;17.68;55.31;98884.81;4214588;28;20443;-77
2023/01/17 22:34:23;;;;;;;2.58;2.38;;;23.30;43.50;;;17.66;55.51;98889.69;4214081;28;20054;-76
2023/01/17 22:36:27;;;;;;;2.50;2.30;;;23.30;43.50;;;17.64;55.52;98880.97;4179570;28;20115;-75
2023/01/17 22:38:29;;;;;;;2.80;2.50;;;23.20;43.50;;;17.62;55.32;98885.81;4214404;28;20101;-74
2023/01/17 22:40:35;;;;;;;3.17;2.65;;;23.30;43.60;;;17.60;55.38;98891.50;4215398;28;20609;-74
2023/01/17 22:42:39;;;;;;;3.22;2.45;;;23.20;43.50;;;17.58;55.44;98887.41;4214133;28;20044;-75
2023/01/17 22:44:41;;;;;;;2.70;2.50;;;23.20;43.50;;;17.56;55.55;98890.38;4214097;28;20444;-76
2023/01/17 22:46:43;;;;;;;2.65;2.45;;;23.20;43.60;;;17.53;55.64;98888.22;4215013;28;20451;-76
2023/01/17 22:48:46;;;;;;;3.05;2.50;;;23.20;43.60;;;17.52;55.58;98891.19;4213946;28;20048;-75
2023/01/17 22:50:48;;;;;;;2.80;2.60;;;23.20;43.60;;;17.50;55.72;98883.31;4213972;28;20042;-75
2023/01/17 22:52:51;;;;;;;3.13;2.83;;;23.10;43.60;;;17.47;55.66;98879.25;4214997;28;20050;-75
2023/01/17 22:54:53;;;;;;;2.85;2.65;;;23.10;43.60;;;17.45;55.50;98889.53;4215097;28;20133;-75
2023/01/17 22:56:55;;;;;;;3.03;2.35;;;23.10;43.60;;;17.43;55.56;98888.97;4213936;28;20450;-76
2023/01/17 22:59:01;;;;;;;5.10;2.63;;;23.10;43.60;;;17.41;55.57;98885.69;4213993;28;20436;-76
2023/01/17 23:01:11;;;;;;;3.00;2.60;;;23.10;43.60;;;17.39;55.54;98895.16;4214129;28;20094;-76
2023/01/17 23:03:13;;;;;;;;;;;23.00;43.60;;;17.26;54.87;98887.47;4214694;28;20058;-75
2023/01/17 23:05:15;;;;;;;2.67;2.28;;;23.00;43.80;;;17.31;55.82;98893.75;4213872;28;19923;-77
2023/01/17 23:07:17;;;;;;;2.38;2.20;;;23.00;43.80;;;17.31;55.60;98896.47;4214752;28;20379;-75
2023/01/17 23:09:20;;;;;;;2.63;2.40;;;23.00;43.80;;;17.31;55.78;98895.66;4214128;28;20032;-75
2023/01/17 23:11:39;;;;;;;3.13;2.50;;;22.90;43.80;;;17.28;55.78;98896.97;4213941;28;20048;-75
2023/01/17 23:13:41;;;;;;;2.63;2.42;;;22.90;43.80;;;17.26;56.04;98901.84;4213948;28;20455;-76
2023/01/17 23:20:24;;;;;;;2.42;2.22;;;22.90;44.00;;;17.15;56.48;98902.81;4213650;28;19927;-74
2023/01/17 23:22:29;;;;;;;4.10;2.58;;;22.80;44.00;;;17.17;56.13;98903.38;4213793;28;20101;-77
2023/01/17 23:24:32;;;;;;;3.08;2.55;;;22.80;44.00;;;17.17;56.25;98903.38;4214290;28;20048;-75
2023/01/17 23:26:36;;;;;;;2.85;2.65;;;22.80;44.00;;;17.17;56.09;98902.56;4214137;28;20043;-75
2023/01/17 23:28:57;;;;;;;2.70;2.50;;;22.80;43.90;;;17.13;56.14;98899.53;4216021;28;20101;-76
2023/01/17 23:31:05;;;;;;;2.70;2.50;;;22.80;44.00;;;17.14;56.05;98906.59;4217075;28;20442;-75
2023/01/17 23:33:10;;;;;;;2.65;2.45;;;22.70;43.90;;;17.11;55.95;98899.81;4216910;28;20047;-76
2023/01/17 23:35:13;;;;;;;3.33;2.70;;;22.70;44.00;;;17.11;56.20;98904.41;4217392;28;20059;-77
2023/01/17 23:37:15;;;;;;;2.65;2.45;;;22.70;44.00;;;17.09;56.19;98901.16;4216766;28;20054;-75
2023/01/17 23:39:16;;;;;;;2.70;2.50;;;22.70;44.00;;;17.08;56.18;98902.22;4216944;28;20075;-75
2023/01/17 23:43:55;;;;;;;2.60;2.40;;;22.70;44.00;;;17.02;56.27;98906.78;4165251;28;20099;-75
2023/01/17 23:45:57;;;;;;;3.35;2.47;;;22.70;44.00;;;17.01;56.38;98902.44;4192859;28;20065;-76
2023/01/17 23:48:01;;;;;;;2.50;2.30;;;22.60;44.00;;;16.99;56.14;98904.56;4218046;28;20044;-74
2023/01/17 23:50:03;;;;;;;2.78;2.58;;;22.60;44.00;;;16.99;56.22;98895.63;4217807;28;20040;-75
2023/01/17 23:52:06;;;;;;;2.75;2.53;;;22.60;44.00;;;16.97;56.04;98908.63;4216907;28;20339;-77
2023/01/17 23:54:09;;;;;;;2.47;2.28;;;22.60;44.10;;;16.95;56.15;98903.44;4216964;28;20089;-75
2023/01/17 23:56:17;;;;;;;2.50;2.30;;;22.60;44.10;;;16.93;56.17;98905.59;4216825;28;20332;-76
2023/01/17 23:58:22;;;;;;;2.80;2.60;;;22.60;44.10;;;16.93;56.53;98904.78;4217099;28;20105;-76
